Time;durP1;ratioP1;P1;durP2;ratioP2;P2;SDS_P1;SDS_P2;PMS_P1;PMS_P2;Temp;Humidity;BMP_temperature;BMP_pressure;BME280_temperature;BME280_humidity;BME280_pressure;Samples;Min_cycle;Max_cycle;Signal;HPM_P1;HPM_P2
2023/11/01 00:01:35;;;;;;;4.23;2.27;;;13.50;99.90;;;;;;4996699;28;20752;-77
2023/11/01 00:04:01;;;;;;;10.47;2.20;;;13.60;99.90;;;;;;4996719;28;20255;-79
2023/11/01 00:06:26;;;;;;;3.37;2.00;;;13.60;99.90;;;;;;4992908;28;20432;-76
2023/11/01 00:08:52;;;;;;;2.47;1.73;;;13.60;99.90;;;;;;4993523;28;22002;-77
2023/11/01 00:11:18;;;;;;;3.43;2.13;;;13.60;99.90;;;;;;4991375;28;20205;-79
2023/11/01 00:13:43;;;;;;;4.93;2.30;;;13.60;99.90;;;;;;4991442;28;20200;-78
2023/11/01 00:16:09;;;;;;;4.70;1.90;;;13.50;99.90;;;;;;4999392;28;20564;-78
2023/11/01 00:18:35;;;;;;;4.53;1.60;;;13.60;99.90;;;;;;5000962;28;20197;-78
2023/11/01 00:21:00;;;;;;;3.00;2.10;;;13.60;99.90;;;;;;4992071;28;20516;-78
2023/11/01 00:23:26;;;;;;;3.23;1.93;;;13.60;99.90;;;;;;4991750;28;20692;-77
2023/11/01 00:25:51;;;;;;;3.47;1.53;;;13.60;99.90;;;;;;4997589;28;20189;-79
2023/11/01 00:28:17;;;;;;;4.43;2.00;;;13.60;99.90;;;;;;4998639;28;20894;-79
2023/11/01 00:30:43;;;;;;;4.53;1.70;;;13.60;99.90;;;;;;4990804;28;20402;-77
2023/11/01 00:33:08;;;;;;;5.30;1.80;;;13.60;99.90;;;;;;5000265;28;20212;-77
2023/11/01 00:35:34;;;;;;;4.40;1.80;;;13.70;99.90;;;;;;4995762;28;20660;-78
2023/11/01 00:37:59;;;;;;;7.97;2.30;;;13.70;99.90;;;;;;5002586;28;20189;-78
2023/11/01 00:40:25;;;;;;;3.83;1.70;;;13.70;99.90;;;;;;4996113;28;20224;-77
2023/11/01 00:42:51;;;;;;;6.87;2.57;;;13.60;99.90;;;;;;4994171;28;20186;-78
2023/11/01 00:45:16;;;;;;;4.50;1.77;;;13.60;99.90;;;;;;4993543;28;20641;-78
2023/11/01 00:47:42;;;;;;;2.93;1.80;;;13.60;99.90;;;;;;4999567;28;20193;-78
2023/11/01 00:50:08;;;;;;;6.20;2.00;;;13.70;99.90;;;;;;4996898;28;20189;-80
2023/11/01 00:52:33;;;;;;;8.13;1.83;;;13.60;99.90;;;;;;4998560;28;20217;-78
2023/11/01 00:54:59;;;;;;;4.60;2.10;;;13.60;99.90;;;;;;4998432;28;20196;-79
2023/11/01 00:57:25;;;;;;;10.17;2.03;;;13.70;99.90;;;;;;4998551;28;20181;-79
2023/11/01 00:59:51;;;;;;;2.67;1.67;;;13.60;99.90;;;;;;4997360;28;21684;-79
2023/11/01 01:02:16;;;;;;;9.90;1.87;;;13.70;99.90;;;;;;5006808;28;20282;-80
2023/11/01 01:04:46;;;;;;;3.90;2.07;;;13.70;99.90;;;;;;4995099;28;20464;-79
2023/11/01 01:07:12;;;;;;;4.53;1.70;;;13.70;99.90;;;;;;5000770;28;20196;-78
2023/11/01 01:09:38;;;;;;;10.73;2.77;;;13.70;99.90;;;;;;5003097;28;20436;-79
2023/11/01 01:12:04;;;;;;;6.83;2.10;;;13.70;99.90;;;;;;5001444;28;20466;-79
2023/11/01 01:14:30;;;;;;;4.30;1.67;;;13.70;99.90;;;;;;4998730;28;20184;-80
2023/11/01 01:16:55;;;;;;;7.00;2.67;;;13.60;99.90;;;;;;4998452;28;20520;-79
2023/11/01 01:19:22;;;;;;;4.07;1.90;;;13.70;99.90;;;;;;5004366;28;20656;-80
2023/11/01 01:21:48;;;;;;;3.87;2.40;;;13.70;99.90;;;;;;5006626;28;20212;-80
2023/11/01 01:24:13;;;;;;;8.70;2.03;;;13.80;99.90;;;;;;5004860;28;20500;-80
2023/11/01 01:26:39;;;;;;;3.33;1.70;;;13.80;99.90;;;;;;5003324;28;20490;-83
2023/11/01 01:29:05;;;;;;;7.10;2.40;;;13.80;99.90;;;;;;5000619;28;20186;-80
2023/11/01 01:31:30;;;;;;;3.90;1.87;;;13.80;99.90;;;;;;4997833;28;20296;-80
2023/11/01 01:33:56;;;;;;;5.07;2.03;;;13.80;99.90;;;;;;4997704;28;20193;-79
2023/11/01 01:36:22;;;;;;;4.80;2.00;;;13.80;99.90;;;;;;4995539;28;20189;-80
2023/11/01 01:38:47;;;;;;;4.27;2.37;;;13.80;99.90;;;;;;5002034;28;20193;-80
2023/11/01 01:41:13;;;;;;;4.20;2.03;;;13.70;99.90;;;;;;5004215;28;20213;-79
2023/11/01 01:43:39;;;;;;;4.47;2.13;;;13.90;99.90;;;;;;5005709;28;20619;-80
2023/11/01 01:46:11;;;;;;;7.80;2.10;;;13.80;99.90;;;;;;4998437;28;20235;-80
2023/11/01 01:48:38;;;;;;;3.57;1.97;;;13.80;99.90;;;;;;5005517;28;20181;-82
2023/11/01 01:51:05;;;;;;;5.20;2.07;;;13.90;99.90;;;;;;5008750;28;20454;-79
2023/11/01 01:53:32;;;;;;;4.00;2.27;;;13.80;99.90;;;;;;4996158;28;20452;-79
2023/11/01 01:55:59;;;;;;;3.23;1.90;;;13.80;99.90;;;;;;4992120;28;20451;-78
2023/11/01 01:58:27;;;;;;;6.17;1.87;;;13.80;99.90;;;;;;4998810;28;20425;-79
2023/11/01 02:00:55;;;;;;;2.40;1.67;;;13.80;99.90;;;;;;5003560;28;20451;-79
2023/11/01 02:03:22;;;;;;;5.27;1.90;;;13.80;99.90;;;;;;5001977;28;20515;-78
2023/11/01 02:05:48;;;;;;;5.33;2.00;;;13.70;99.90;;;;;;5008061;28;20451;-79
2023/11/01 02:08:14;;;;;;;3.40;1.70;;;13.80;99.90;;;;;;5009021;28;20934;-79
2023/11/01 02:10:40;;;;;;;3.70;1.90;;;13.80;99.90;;;;;;4997225;28;20213;-78
2023/11/01 02:13:13;;;;;;;6.93;2.10;;;13.80;99.90;;;;;;4995789;28;20459;-79
2023/11/01 02:15:39;;;;;;;5.03;2.00;;;13.70;99.90;;;;;;4988888;28;20513;-78
2023/11/01 02:18:05;;;;;;;4.40;1.87;;;13.60;99.90;;;;;;5005316;28;20424;-77
2023/11/01 02:20:35;;;;;;;3.53;2.03;;;13.70;99.90;;;;;;5005106;28;20869;-80
2023/11/01 02:23:02;;;;;;;7.07;2.00;;;13.70;99.90;;;;;;5000506;28;20216;-79
2023/11/01 02:25:28;;;;;;;2.87;1.40;;;13.70;99.90;;;;;;4998351;28;20448;-78
2023/11/01 02:27:56;;;;;;;3.30;2.13;;;13.60;99.90;;;;;;5009100;28;20419;-82
2023/11/01 02:30:22;;;;;;;5.30;1.70;;;13.70;99.90;;;;;;4999819;28;20988;-79
2023/11/01 02:32:48;;;;;;;5.30;2.10;;;13.60;99.90;;;;;;5004947;28;20530;-80
2023/11/01 02:35:20;;;;;;;4.47;1.80;;;13.70;99.90;;;;;;4997931;28;20440;-79
2023/11/01 02:37:47;;;;;;;7.33;2.07;;;13.70;99.90;;;;;;5000532;28;20820;-79
2023/11/01 02:40:14;;;;;;;5.73;1.70;;;13.70;99.90;;;;;;5006728;28;20424;-80
2023/11/01 02:42:43;;;;;;;2.60;1.43;;;13.60;99.90;;;;;;5006939;28;20427;-80
2023/11/01 02:45:10;;;;;;;3.33;1.70;;;13.60;99.90;;;;;;4998712;28;20532;-80
2023/11/01 02:47:39;;;;;;;5.27;1.83;;;13.60;99.90;;;;;;5006501;28;20424;-82
2023/11/01 02:50:09;;;;;;;5.87;1.80;;;13.60;99.90;;;;;;5001618;28;20427;-81
2023/11/01 02:52:35;;;;;;;7.83;2.73;;;13.50;99.90;;;;;;5007404;28;20464;-78
2023/11/01 02:55:09;;;;;;;6.50;2.33;;;13.50;99.90;;;;;;5002718;28;20427;-79
2023/11/01 02:57:34;;;;;;;3.80;1.87;;;13.60;99.90;;;;;;5000770;28;20433;-81
2023/11/01 03:00:01;;;;;;;3.50;2.10;;;13.60;99.90;;;;;;4994286;28;20433;-79
2023/11/01 03:02:26;;;;;;;4.43;1.70;;;13.60;99.90;;;;;;4992333;28;20208;-78
2023/11/01 03:04:52;;;;;;;5.77;1.70;;;13.60;99.90;;;;;;4998339;28;20444;-78
2023/11/01 03:07:18;;;;;;;4.60;2.00;;;13.60;99.90;;;;;;4991288;28;20205;-77
2023/11/01 03:09:44;;;;;;;5.77;1.97;;;13.50;99.90;;;;;;4995202;28;20217;-77
2023/11/01 03:12:10;;;;;;;2.90;1.70;;;13.60;99.90;;;;;;4998760;28;20503;-78
2023/11/01 03:14:38;;;;;;;2.30;1.50;;;13.50;99.90;;;;;;4996657;28;20637;-79
2023/11/01 03:17:05;;;;;;;3.50;1.60;;;13.50;99.90;;;;;;5006162;28;20189;-79
2023/11/01 03:19:30;;;;;;;3.67;1.60;;;13.60;99.90;;;;;;4997955;28;20512;-81
2023/11/01 03:21:56;;;;;;;4.00;1.57;;;13.60;99.90;;;;;;5002174;28;20485;-81
2023/11/01 03:24:22;;;;;;;9.20;1.60;;;13.60;99.90;;;;;;5006147;28;20428;-79
2023/11/01 03:26:47;;;;;;;6.00;2.00;;;13.70;99.90;;;;;;5008063;28;20181;-78
2023/11/01 03:29:13;;;;;;;5.23;1.60;;;13.70;99.90;;;;;;5000417;28;20715;-82
2023/11/01 03:31:38;;;;;;;4.93;2.03;;;13.70;99.90;;;;;;5023262;28;20205;-80
2023/11/01 03:34:04;;;;;;;3.30;1.70;;;13.70;99.90;;;;;;4994754;28;21274;-82
2023/11/01 03:36:30;;;;;;;4.83;1.70;;;13.70;99.90;;;;;;5004528;28;20200;-80
2023/11/01 03:38:55;;;;;;;4.80;2.20;;;13.70;99.90;;;;;;5002830;28;20265;-79
2023/11/01 03:41:21;;;;;;;5.13;1.90;;;13.70;99.90;;;;;;4999887;28;20725;-78
2023/11/01 03:43:47;;;;;;;4.77;1.80;;;13.70;99.90;;;;;;5005879;28;20181;-82
2023/11/01 03:46:13;;;;;;;3.00;1.70;;;13.80;99.90;;;;;;4994066;28;20211;-80
2023/11/01 03:48:38;;;;;;;3.10;1.67;;;13.80;99.90;;;;;;4996952;28;20177;-80
2023/11/01 03:51:04;;;;;;;2.73;1.40;;;13.80;99.90;;;;;;5005454;28;20201;-81
2023/11/01 03:53:30;;;;;;;3.83;1.80;;;13.80;99.90;;;;;;5012247;28;20209;-80
2023/11/01 03:55:57;;;;;;;5.50;1.63;;;13.80;99.90;;;;;;5011829;28;20189;-82
2023/11/01 03:58:22;;;;;;;4.33;3.17;;;13.80;99.90;;;;;;5017879;28;20479;-83
2023/11/01 04:00:48;;;;;;;5.43;2.00;;;13.80;99.90;;;;;;5018912;28;20484;-83
2023/11/01 04:03:14;;;;;;;4.60;1.70;;;13.80;99.90;;;;;;5016030;28;20192;-82
2023/11/01 04:05:40;;;;;;;3.03;1.57;;;13.80;99.90;;;;;;5027873;28;20451;-81
2023/11/01 04:08:05;;;;;;;6.93;2.40;;;13.70;99.90;;;;;;5027524;28;20469;-80
2023/11/01 04:10:31;;;;;;;3.10;1.50;;;13.70;99.90;;;;;;5024229;28;20195;-81
2023/11/01 04:12:57;;;;;;;5.37;1.87;;;13.70;99.90;;;;;;5028247;28;20197;-81
2023/11/01 04:15:22;;;;;;;3.80;1.37;;;13.60;99.90;;;;;;5014019;28;20182;-78
2023/11/01 04:17:49;;;;;;;3.13;1.70;;;13.70;99.90;;;;;;5007305;28;20182;-79
2023/11/01 04:20:15;;;;;;;4.93;2.17;;;13.70;99.90;;;;;;5016740;28;20200;-81
2023/11/01 04:22:41;;;;;;;4.93;1.60;;;13.70;99.90;;;;;;5015703;28;20468;-78
2023/11/01 04:25:10;;;;;;;7.30;2.20;;;13.70;99.90;;;;;;4999004;28;20477;-80
2023/11/01 04:27:39;;;;;;;4.63;1.67;;;13.60;99.90;;;;;;5006573;28;20201;-80
2023/11/01 04:30:14;;;;;;;4.40;1.60;;;13.60;99.90;;;;;;5001655;28;21017;-79
2023/11/01 04:32:41;;;;;;;6.27;1.93;;;13.70;99.90;;;;;;4995902;28;20473;-80
2023/11/01 04:35:10;;;;;;;4.00;1.90;;;13.60;99.90;;;;;;4989317;28;20432;-79
2023/11/01 04:37:41;;;;;;;6.07;1.70;;;13.60;99.90;;;;;;4996311;28;20421;-81
2023/11/01 04:40:08;;;;;;;3.57;1.50;;;13.60;99.90;;;;;;5004247;28;20434;-81
2023/11/01 04:42:40;;;;;;;4.17;1.63;;;13.60;99.90;;;;;;4999761;28;20448;-79
2023/11/01 04:45:07;;;;;;;3.77;1.77;;;13.60;99.90;;;;;;4997405;28;21019;-80
2023/11/01 04:47:35;;;;;;;6.03;2.07;;;13.50;99.90;;;;;;4992190;28;20487;-79
2023/11/01 04:50:02;;;;;;;3.80;2.13;;;13.50;99.90;;;;;;4995770;28;20540;-79
2023/11/01 04:52:28;;;;;;;4.10;1.80;;;13.60;99.90;;;;;;5001334;28;20506;-78
2023/11/01 04:54:54;;;;;;;2.50;1.53;;;13.50;99.90;;;;;;4994983;28;20505;-79
2023/11/01 04:57:19;;;;;;;3.47;1.60;;;13.60;99.90;;;;;;5004178;28;20178;-79
2023/11/01 04:59:45;;;;;;;5.27;1.80;;;13.60;99.90;;;;;;4999785;28;20190;-80
2023/11/01 05:02:10;;;;;;;4.03;1.60;;;13.50;99.90;;;;;;5006739;28;20295;-80
2023/11/01 05:04:36;;;;;;;3.97;2.10;;;13.50;99.90;;;;;;5009644;28;20774;-80
2023/11/01 05:07:02;;;;;;;6.30;1.73;;;13.60;99.90;;;;;;5007183;28;20244;-80
2023/11/01 05:09:28;;;;;;;5.53;2.53;;;13.60;99.90;;;;;;5011873;28;20451;-78
2023/11/01 05:11:53;;;;;;;3.37;2.10;;;13.70;99.90;;;;;;5008691;28;20236;-77
2023/11/01 05:14:19;;;;;;;2.90;1.97;;;13.60;99.90;;;;;;4998183;28;20181;-81
2023/11/01 05:16:46;;;;;;;3.63;1.93;;;13.50;99.90;;;;;;5002021;28;20193;-78
2023/11/01 05:19:12;;;;;;;3.40;1.93;;;13.50;99.90;;;;;;4997957;28;20432;-77
2023/11/01 05:21:38;;;;;;;3.90;1.97;;;13.40;99.90;;;;;;5002086;28;20451;-79
2023/11/01 05:24:04;;;;;;;3.73;1.50;;;13.40;99.90;;;;;;5000350;28;20324;-79
2023/11/01 05:26:30;;;;;;;2.90;1.80;;;13.40;99.90;;;;;;4998255;28;20511;-79
2023/11/01 05:28:56;;;;;;;3.60;1.50;;;13.40;99.90;;;;;;4996118;28;20432;-79
2023/11/01 05:31:23;;;;;;;4.53;2.00;;;13.40;99.90;;;;;;4997621;28;20203;-79
2023/11/01 05:33:50;;;;;;;5.83;1.80;;;13.30;99.90;;;;;;4995820;28;20531;-79
2023/11/01 05:36:15;;;;;;;3.53;2.20;;;13.40;99.90;;;;;;4999192;28;20492;-80
2023/11/01 05:38:44;;;;;;;5.77;1.70;;;13.30;99.90;;;;;;4998387;28;20511;-78
2023/11/01 05:41:09;;;;;;;6.50;1.63;;;13.30;99.90;;;;;;4995005;28;20537;-79
2023/11/01 05:43:37;;;;;;;6.13;1.70;;;13.30;99.90;;;;;;5002160;28;20436;-81
2023/11/01 05:46:03;;;;;;;3.77;2.00;;;13.30;99.90;;;;;;4995690;28;20188;-79
2023/11/01 05:48:29;;;;;;;3.07;1.80;;;13.40;99.90;;;;;;4997515;28;20766;-81
2023/11/01 05:50:56;;;;;;;5.70;2.00;;;13.40;99.90;;;;;;4998666;28;20535;-78
2023/11/01 05:53:22;;;;;;;5.40;2.07;;;13.30;99.90;;;;;;5005756;28;20259;-80
2023/11/01 05:55:47;;;;;;;4.77;2.00;;;13.30;99.90;;;;;;5009501;28;20436;-82
2023/11/01 05:58:13;;;;;;;2.83;1.90;;;13.30;99.90;;;;;;5003771;28;20205;-79
2023/11/01 06:00:39;;;;;;;6.70;2.00;;;13.30;99.90;;;;;;5004018;28;20256;-79
2023/11/01 06:03:08;;;;;;;11.53;2.53;;;13.30;99.90;;;;;;5002481;28;20677;-79
2023/11/01 06:05:35;;;;;;;6.00;1.90;;;13.30;99.90;;;;;;5012895;28;20185;-80
2023/11/01 06:08:02;;;;;;;4.50;1.70;;;13.30;99.90;;;;;;5007428;28;20864;-80
2023/11/01 06:10:27;;;;;;;4.87;1.90;;;13.40;99.90;;;;;;4999602;28;20480;-78
2023/11/01 06:12:53;;;;;;;2.77;1.80;;;13.30;99.90;;;;;;5000435;28;20492;-80
2023/11/01 06:15:18;;;;;;;2.83;1.80;;;13.30;99.90;;;;;;5004994;28;20637;-81
2023/11/01 06:17:44;;;;;;;17.30;3.47;;;13.20;99.90;;;;;;4999547;28;20181;-79
2023/11/01 06:20:10;;;;;;;3.70;1.80;;;13.20;99.90;;;;;;5006070;28;20184;-79
2023/11/01 06:22:36;;;;;;;2.70;1.47;;;13.20;99.90;;;;;;5003723;28;20442;-80
2023/11/01 06:25:02;;;;;;;4.83;2.20;;;13.20;99.90;;;;;;5003493;28;20296;-80
2023/11/01 06:27:28;;;;;;;5.60;2.00;;;13.20;99.90;;;;;;4999315;28;20187;-79
2023/11/01 06:29:54;;;;;;;5.37;1.97;;;13.20;99.90;;;;;;4992305;28;20438;-78
2023/11/01 06:32:19;;;;;;;3.83;2.20;;;13.20;99.90;;;;;;5000836;28;20215;-79
2023/11/01 06:34:45;;;;;;;5.27;2.23;;;13.20;99.90;;;;;;5003765;28;20503;-79
2023/11/01 06:37:11;;;;;;;3.23;2.00;;;13.20;99.90;;;;;;5005201;28;20261;-80
2023/11/01 06:39:36;;;;;;;4.60;2.87;;;13.20;99.90;;;;;;5001379;28;20574;-79
2023/11/01 06:42:02;;;;;;;6.27;2.40;;;13.20;99.90;;;;;;4999623;28;20193;-79
2023/11/01 06:44:28;;;;;;;3.67;2.10;;;13.20;99.90;;;;;;4996576;28;20244;-79
2023/11/01 06:46:54;;;;;;;3.93;2.03;;;13.20;99.90;;;;;;5000001;28;20186;-80
2023/11/01 06:49:20;;;;;;;5.70;2.27;;;13.10;99.90;;;;;;5006346;28;20420;-80
2023/11/01 06:51:46;;;;;;;10.37;2.33;;;13.10;99.90;;;;;;4998890;28;20453;-78
2023/11/01 06:54:11;;;;;;;12.57;2.33;;;13.10;99.90;;;;;;4992396;28;20665;-78
2023/11/01 06:56:45;;;;;;;4.97;2.37;;;13.10;99.90;;;;;;4992649;28;20267;-78
2023/11/01 06:59:14;;;;;;;10.93;3.20;;;13.10;99.90;;;;;;5001623;28;20230;-78
2023/11/01 07:01:41;;;;;;;4.87;2.37;;;13.10;99.90;;;;;;4994994;28;20443;-78
2023/11/01 07:04:07;;;;;;;6.53;2.57;;;13.10;99.90;;;;;;4999131;28;20445;-80
2023/11/01 07:06:32;;;;;;;11.30;2.37;;;13.10;99.90;;;;;;4998135;28;20415;-79
2023/11/01 07:08:58;;;;;;;3.20;2.37;;;13.10;99.90;;;;;;4999061;28;20435;-78
2023/11/01 07:11:30;;;;;;;7.17;2.63;;;13.10;99.90;;;;;;4999194;28;20643;-79
2023/11/01 07:13:55;;;;;;;3.57;2.30;;;13.10;99.90;;;;;;4998860;28;20240;-79
2023/11/01 07:16:21;;;;;;;9.97;3.13;;;13.20;99.90;;;;;;4998256;28;20938;-79
2023/11/01 07:18:47;;;;;;;5.30;3.27;;;13.20;99.90;;;;;;5000973;28;20185;-79
2023/11/01 07:21:12;;;;;;;6.30;3.10;;;13.20;99.90;;;;;;4997130;28;20193;-81
2023/11/01 07:23:38;;;;;;;5.40;2.40;;;13.30;99.90;;;;;;5004166;28;20191;-82
2023/11/01 07:26:04;;;;;;;4.43;2.37;;;13.30;99.90;;;;;;5002812;28;20193;-83
2023/11/01 07:28:30;;;;;;;4.37;2.57;;;13.30;99.90;;;;;;5003595;28;20194;-80
2023/11/01 07:30:56;;;;;;;4.43;2.77;;;13.40;99.90;;;;;;5007163;28;20444;-80
2023/11/01 07:33:22;;;;;;;7.60;3.07;;;13.50;99.90;;;;;;4996098;28;20534;-83
2023/11/01 07:35:48;;;;;;;7.80;3.33;;;13.60;99.90;;;;;;5004821;28;20422;-81
2023/11/01 07:38:13;;;;;;;5.20;3.80;;;13.60;99.90;;;;;;4999904;28;20185;-81
2023/11/01 07:40:39;;;;;;;5.20;2.70;;;13.70;99.90;;;;;;5008413;28;20228;-81
2023/11/01 07:43:05;;;;;;;6.07;2.90;;;13.70;99.90;;;;;;5016614;28;20181;-81
2023/11/01 07:45:31;;;;;;;5.73;2.90;;;13.70;99.90;;;;;;5011451;28;21005;-79
2023/11/01 07:47:57;;;;;;;12.20;3.53;;;13.80;99.90;;;;;;5006195;28;20185;-79
2023/11/01 07:50:26;;;;;;;8.13;2.97;;;13.80;99.90;;;;;;5001623;28;20463;-79
2023/11/01 07:52:51;;;;;;;6.10;2.80;;;13.90;99.90;;;;;;5001852;28;20228;-82
2023/11/01 07:55:17;;;;;;;5.73;2.67;;;13.90;99.90;;;;;;5003356;28;20443;-82
2023/11/01 07:57:42;;;;;;;4.17;2.13;;;14.00;99.90;;;;;;5005895;28;20244;-80
2023/11/01 08:00:10;;;;;;;5.87;2.40;;;14.00;99.90;;;;;;5015600;28;20254;-81
2023/11/01 08:02:36;;;;;;;2.83;1.80;;;14.00;99.90;;;;;;5005105;28;20184;-80
2023/11/01 08:05:02;;;;;;;4.37;2.53;;;14.10;99.90;;;;;;4997022;28;20521;-79
2023/11/01 08:07:28;;;;;;;4.70;2.20;;;14.10;99.90;;;;;;4997158;28;20280;-81
2023/11/01 08:09:53;;;;;;;4.73;2.30;;;14.10;99.90;;;;;;4995024;28;20512;-75
2023/11/01 08:12:19;;;;;;;4.30;2.20;;;14.10;99.90;;;;;;4995669;28;21119;-77
2023/11/01 08:14:45;;;;;;;4.87;2.37;;;14.10;99.90;;;;;;4984249;28;20189;-74
2023/11/01 08:17:11;;;;;;;4.40;2.10;;;14.20;99.90;;;;;;4981006;28;20456;-74
2023/11/01 08:19:38;;;;;;;5.43;2.07;;;14.20;99.90;;;;;;4983981;28;20672;-75
2023/11/01 08:22:04;;;;;;;4.80;1.93;;;14.30;99.90;;;;;;4985886;28;20313;-75
2023/11/01 08:24:30;;;;;;;9.37;2.20;;;14.40;99.90;;;;;;4982798;28;20436;-74
2023/11/01 08:26:55;;;;;;;5.07;2.33;;;14.40;99.90;;;;;;4984506;28;21308;-74
2023/11/01 08:29:21;;;;;;;2.90;1.77;;;14.50;99.90;;;;;;4999730;28;20656;-74
2023/11/01 08:31:47;;;;;;;4.30;2.10;;;14.60;99.90;;;;;;4999444;28;20947;-76
2023/11/01 08:34:13;;;;;;;3.90;1.90;;;14.60;99.90;;;;;;5013644;28;20185;-75
2023/11/01 08:36:38;;;;;;;4.67;2.27;;;14.70;99.90;;;;;;5009412;28;20169;-75
2023/11/01 08:39:04;;;;;;;6.03;2.10;;;14.80;99.90;;;;;;5012446;28;20186;-75
2023/11/01 08:41:30;;;;;;;3.87;1.87;;;14.80;99.90;;;;;;5018027;28;20197;-76
2023/11/01 08:43:56;;;;;;;3.93;2.73;;;14.90;99.90;;;;;;5019456;28;20496;-76
2023/11/01 08:46:22;;;;;;;3.83;2.17;;;15.00;99.90;;;;;;5014666;28;20182;-76
2023/11/01 08:48:49;;;;;;;4.47;2.50;;;15.10;99.90;;;;;;5016067;28;20192;-75
2023/11/01 08:51:15;;;;;;;5.27;2.00;;;15.20;99.90;;;;;;5049443;28;20229;-76
2023/11/01 08:53:41;;;;;;;4.70;2.40;;;15.20;99.90;;;;;;5018262;28;20471;-76
2023/11/01 08:56:07;;;;;;;4.53;2.70;;;15.30;99.90;;;;;;5016694;28;20412;-75
2023/11/01 08:58:33;;;;;;;5.90;2.57;;;15.40;99.90;;;;;;5012734;28;20459;-75
2023/11/01 09:01:00;;;;;;;4.97;2.30;;;15.40;99.90;;;;;;4999482;28;21291;-76
2023/11/01 09:03:25;;;;;;;5.43;2.13;;;15.50;99.90;;;;;;4999878;28;20466;-75
2023/11/01 09:05:52;;;;;;;2.60;1.90;;;15.60;99.90;;;;;;5006025;28;20428;-77
2023/11/01 09:08:18;;;;;;;5.77;2.50;;;15.70;99.90;;;;;;5003637;28;20268;-76
2023/11/01 09:10:44;;;;;;;4.10;2.27;;;15.70;99.90;;;;;;5006871;28;20523;-76
2023/11/01 09:13:10;;;;;;;5.60;2.27;;;15.80;99.90;;;;;;5001278;28;20212;-76
2023/11/01 09:15:36;;;;;;;4.97;2.03;;;15.90;99.90;;;;;;4994804;28;20432;-76
2023/11/01 09:18:01;;;;;;;3.30;1.83;;;15.90;99.90;;;;;;5000035;28;20560;-76
2023/11/01 09:20:27;;;;;;;2.77;1.90;;;16.00;99.90;;;;;;4998521;28;20212;-77
2023/11/01 09:22:52;;;;;;;5.20;2.40;;;16.10;99.90;;;;;;5000056;28;20189;-78
2023/11/01 09:25:18;;;;;;;5.60;2.20;;;16.20;99.90;;;;;;5003755;28;20189;-76
2023/11/01 09:27:44;;;;;;;5.53;1.90;;;16.30;99.90;;;;;;5002595;28;20204;-76
2023/11/01 09:30:10;;;;;;;5.20;2.30;;;16.40;99.90;;;;;;5003558;28;20645;-77
2023/11/01 09:32:39;;;;;;;9.83;3.40;;;16.40;99.90;;;;;;5006469;28;20216;-78
2023/11/01 09:35:07;;;;;;;10.53;3.80;;;16.50;99.90;;;;;;5001365;28;20787;-76
2023/11/01 09:37:32;;;;;;;5.17;2.50;;;16.60;99.90;;;;;;4998597;28;20554;-76
2023/11/01 09:39:58;;;;;;;4.47;2.20;;;16.50;99.90;;;;;;5002330;28;20425;-77
2023/11/01 09:42:25;;;;;;;6.00;2.00;;;16.50;99.90;;;;;;5005197;28;20204;-76
2023/11/01 09:44:56;;;;;;;6.47;2.07;;;16.60;99.90;;;;;;5001924;28;20221;-76
2023/11/01 09:47:26;;;;;;;3.53;1.60;;;16.60;99.90;;;;;;4999273;28;20567;-77
2023/11/01 09:49:56;;;;;;;5.67;3.27;;;16.70;99.90;;;;;;4999966;28;20448;-78
2023/11/01 09:52:22;;;;;;;5.50;2.90;;;16.70;99.90;;;;;;4998910;28;20466;-75
2023/11/01 09:54:48;;;;;;;3.43;1.80;;;16.80;99.90;;;;;;5003494;28;20917;-75
2023/11/01 09:57:16;;;;;;;4.33;1.77;;;16.80;99.90;;;;;;5004089;28;21001;-75
2023/11/01 09:59:42;;;;;;;4.37;1.67;;;16.80;99.90;;;;;;4999266;28;21309;-76
2023/11/01 10:02:12;;;;;;;3.90;2.00;;;16.80;99.90;;;;;;4997453;28;20838;-75
2023/11/01 10:04:39;;;;;;;2.43;1.60;;;16.80;99.90;;;;;;4997996;28;20467;-75
2023/11/01 10:07:06;;;;;;;3.13;2.10;;;16.80;99.90;;;;;;5001401;28;20428;-76
2023/11/01 10:09:32;;;;;;;3.97;2.10;;;16.90;99.90;;;;;;5003483;28;20571;-76
2023/11/01 10:11:57;;;;;;;4.20;1.70;;;16.90;99.90;;;;;;5002276;28;20558;-76
2023/11/01 10:14:30;;;;;;;3.83;1.60;;;17.00;99.90;;;;;;4994703;28;20890;-77
2023/11/01 10:16:57;;;;;;;3.40;1.90;;;17.10;99.90;;;;;;5003097;28;20208;-75
2023/11/01 10:19:24;;;;;;;3.80;1.57;;;17.10;99.90;;;;;;4998812;28;20532;-76
2023/11/01 10:21:51;;;;;;;8.43;1.93;;;17.00;99.90;;;;;;5001453;28;20547;-77
2023/11/01 10:24:17;;;;;;;3.30;1.70;;;16.90;99.90;;;;;;5003359;28;20467;-76
2023/11/01 10:26:43;;;;;;;3.30;1.90;;;16.90;99.90;;;;;;4998216;28;20948;-76
2023/11/01 10:29:08;;;;;;;3.30;2.23;;;17.00;99.90;;;;;;4996169;28;20487;-78
2023/11/01 10:31:34;;;;;;;4.33;2.00;;;17.00;99.90;;;;;;5005241;28;20208;-77
2023/11/01 10:34:13;;;;;;;4.10;2.10;;;17.10;99.90;;;;;;5001151;28;20958;-76
2023/11/01 10:37:05;;;;;;;4.10;1.50;;;17.10;99.90;;;;;;4998769;28;20268;-77
2023/11/01 10:39:33;;;;;;;6.70;1.97;;;17.20;99.90;;;;;;4999858;28;20433;-76
2023/11/01 10:42:01;;;;;;;5.57;2.17;;;17.20;99.90;;;;;;5005784;28;20446;-77
2023/11/01 10:44:27;;;;;;;2.80;1.63;;;17.10;99.90;;;;;;4993037;28;20416;-77
2023/11/01 10:46:53;;;;;;;2.40;1.90;;;17.20;99.90;;;;;;4995795;28;20987;-76
2023/11/01 10:49:19;;;;;;;4.13;1.60;;;17.20;99.90;;;;;;4999915;28;20205;-76
2023/11/01 10:51:45;;;;;;;6.37;2.13;;;17.20;99.90;;;;;;5004679;28;20428;-76
2023/11/01 10:54:11;;;;;;;3.97;1.70;;;17.30;99.90;;;;;;4999045;28;20805;-78
2023/11/01 10:56:37;;;;;;;4.23;1.57;;;17.40;99.90;;;;;;4992932;28;21019;-76
2023/11/01 10:59:10;;;;;;;4.53;1.80;;;17.40;99.90;;;;;;4996118;28;20428;-77
2023/11/01 11:01:45;;;;;;;3.47;2.17;;;17.50;99.90;;;;;;5002307;28;20467;-76
2023/11/01 11:04:21;;;;;;;3.50;1.60;;;17.40;99.90;;;;;;4998702;28;20543;-76
2023/11/01 11:07:14;;;;;;;3.93;1.63;;;17.50;99.90;;;;;;5000095;28;20415;-76
2023/11/01 11:09:39;;;;;;;5.30;2.17;;;17.60;99.90;;;;;;4999500;28;20412;-77
2023/11/01 11:12:15;;;;;;;4.43;2.07;;;17.80;99.90;;;;;;4998766;28;21326;-76
2023/11/01 11:14:46;;;;;;;7.00;3.57;;;17.80;99.90;;;;;;4993921;28;20623;-76
2023/11/01 11:17:14;;;;;;;6.20;2.60;;;17.90;99.90;;;;;;4998240;28;20943;-77
2023/11/01 11:20:16;;;;;;;4.53;2.87;;;17.90;99.90;;;;;;4994999;28;20491;-76
2023/11/01 11:23:02;;;;;;;4.13;1.70;;;18.00;99.90;;;;;;4994860;28;20415;-75
2023/11/01 11:25:48;;;;;;;5.40;2.20;;;18.10;99.90;;;;;;4988620;28;20427;-75
2023/11/01 11:28:14;;;;;;;2.87;2.00;;;18.20;99.90;;;;;;4996279;28;20548;-77
2023/11/01 11:31:06;;;;;;;3.27;2.00;;;18.20;99.90;;;;;;4996519;28;20464;-76
2023/11/01 11:33:58;;;;;;;6.23;2.07;;;18.20;99.90;;;;;;5022566;28;20247;-76
2023/11/01 11:36:25;;;;;;;3.23;2.13;;;18.40;99.90;;;;;;4996083;28;20412;-75
2023/11/01 11:38:57;;;;;;;3.70;2.00;;;18.50;99.90;;;;;;4992901;28;20471;-77
2023/11/01 11:41:38;;;;;;;3.37;2.53;;;18.60;99.90;;;;;;5001982;28;20443;-77
2023/11/01 11:44:14;;;;;;;4.50;2.60;;;18.70;99.90;;;;;;4996355;28;20499;-75
2023/11/01 11:46:52;;;;;;;8.00;2.10;;;18.70;99.90;;;;;;4994024;28;20817;-76
2023/11/01 11:49:22;;;;;;;2.90;1.87;;;19.20;99.90;;;;;;4996720;28;20519;-75
2023/11/01 11:52:06;;;;;;;2.70;1.83;;;19.60;99.90;;;;;;4999501;28;20452;-76
2023/11/01 11:54:34;;;;;;;5.00;2.30;;;19.80;99.90;;;;;;4994697;28;20542;-76
2023/11/01 11:57:05;;;;;;;5.27;2.67;;;20.30;99.90;;;;;;4999637;28;20412;-76
2023/11/01 11:59:32;;;;;;;4.40;2.60;;;20.70;99.90;;;;;;4992304;28;20436;-78
2023/11/01 12:02:15;;;;;;;5.17;2.10;;;21.10;99.90;;;;;;4996866;28;20439;-77
2023/11/01 12:04:43;;;;;;;4.13;1.80;;;22.00;99.90;;;;;;4995702;28;20447;-75
2023/11/01 12:07:18;;;;;;;3.10;1.97;;;22.90;99.90;;;;;;4999595;28;20420;-76
2023/11/01 12:09:48;;;;;;;4.80;2.50;;;23.40;99.90;;;;;;5000019;28;20438;-76
2023/11/01 12:12:14;;;;;;;3.50;2.33;;;23.70;99.90;;;;;;5011073;28;20521;-76
2023/11/01 12:14:40;;;;;;;2.97;1.80;;;24.00;99.90;;;;;;4998061;28;20526;-77
2023/11/01 12:17:06;;;;;;;2.80;1.90;;;24.70;99.90;;;;;;5003822;28;20416;-76
2023/11/01 12:19:33;;;;;;;5.30;1.80;;;25.60;99.90;;;;;;4996438;28;20435;-77
2023/11/01 12:22:00;;;;;;;3.27;2.10;;;25.80;99.40;;;;;;5004618;28;20438;-76
2023/11/01 12:24:38;;;;;;;3.60;2.03;;;25.50;97.80;;;;;;5008954;28;20463;-76
2023/11/01 12:27:09;;;;;;;6.47;2.00;;;25.00;95.70;;;;;;5000220;28;20416;-76
2023/11/01 12:29:45;;;;;;;5.87;2.23;;;24.30;95.60;;;;;;4995112;28;20436;-77
2023/11/01 12:32:16;;;;;;;2.53;1.93;;;23.90;95.90;;;;;;5005139;28;20821;-76
2023/11/01 12:34:48;;;;;;;2.33;1.73;;;23.50;95.20;;;;;;5000403;28;20421;-76
2023/11/01 12:37:16;;;;;;;3.03;1.80;;;23.00;94.60;;;;;;4993334;28;20467;-76
2023/11/01 12:40:12;;;;;;;2.30;1.80;;;22.60;94.40;;;;;;5010203;28;20428;-77
2023/11/01 12:42:46;;;;;;;3.00;1.63;;;22.40;94.20;;;;;;4999159;28;20495;-76
2023/11/01 12:45:15;;;;;;;2.50;1.80;;;22.20;95.10;;;;;;4992741;28;20491;-77
2023/11/01 12:47:48;;;;;;;3.10;1.87;;;21.80;94.30;;;;;;4998069;28;20459;-77